createdAt,value
2023-03-23T15:59:44.021Z,34.09
2023-03-23T16:02:20.087Z,34.68
2023-03-23T16:04:49.028Z,35.18
2023-03-23T16:07:21.364Z,35.30
2023-03-23T16:09:49.253Z,35.57
2023-03-23T16:12:17.282Z,35.90
2023-03-23T16:14:45.134Z,36.32
2023-03-23T16:17:18.335Z,36.71
2023-03-23T16:19:46.194Z,37.09
2023-03-23T16:22:14.325Z,37.44
2023-03-23T16:24:43.378Z,37.70
2023-03-23T16:27:12.176Z,37.82
2023-03-23T16:29:59.783Z,38.35
2023-03-23T16:32:09.677Z,38.42
2023-03-23T16:34:37.828Z,38.72
2023-03-23T16:37:06.319Z,39.07
2023-03-23T16:39:34.053Z,39.36
2023-03-23T16:42:01.923Z,39.78
2023-03-23T16:44:29.790Z,40.11
2023-03-23T16:46:57.591Z,40.55
2023-03-23T16:49:25.312Z,40.70
2023-03-23T16:51:53.265Z,40.85
2023-03-23T16:54:22.745Z,41.17
2023-03-23T16:56:50.445Z,41.53
2023-03-23T16:59:18.208Z,41.92
2023-03-23T17:01:45.920Z,41.70
2023-03-23T17:04:15.200Z,41.95
2023-03-23T17:06:43.576Z,42.32
2023-03-23T17:09:13.040Z,42.71
2023-03-23T17:11:40.802Z,43.22
2023-03-23T17:14:08.552Z,43.62
2023-03-23T17:16:36.538Z,44.26
2023-03-23T17:19:04.437Z,44.66
2023-03-23T17:21:33.613Z,45.37
2023-03-23T17:24:02.434Z,45.79
2023-03-23T17:26:30.110Z,45.89
2023-03-23T17:28:58.004Z,46.31
2023-03-23T17:31:26.209Z,46.55
2023-03-23T17:33:54.107Z,46.79
2023-03-23T17:36:21.961Z,46.93
2023-03-23T17:38:50.613Z,47.16
2023-03-23T17:41:20.603Z,47.42
2023-03-23T17:43:48.620Z,47.67
2023-03-23T17:46:16.386Z,47.99
2023-03-23T17:48:44.235Z,47.84
2023-03-23T17:51:12.015Z,48.29
2023-03-23T17:53:39.982Z,48.51
2023-03-23T17:56:08.765Z,48.81
2023-03-23T17:58:36.888Z,48.98
2023-03-23T18:01:05.364Z,49.31
2023-03-23T18:03:33.359Z,49.40
2023-03-23T18:06:04.803Z,49.52
2023-03-23T18:08:33.809Z,49.84
2023-03-23T18:11:01.921Z,50.00
2023-03-23T18:13:32.875Z,50.24
2023-03-23T18:16:03.338Z,50.77
2023-03-23T18:18:31.530Z,50.93
2023-03-23T18:21:07.338Z,51.17
2023-03-23T18:23:45.969Z,51.54
2023-03-23T18:26:10.444Z,52.08
2023-03-23T18:28:38.926Z,52.36
2023-03-23T18:31:14.102Z,52.81
2023-03-23T18:33:45.635Z,53.19
2023-03-23T18:36:18.186Z,53.19
2023-03-23T18:38:48.278Z,53.39
2023-03-23T18:41:17.606Z,53.42
2023-03-23T18:43:45.610Z,53.38
2023-03-23T18:46:15.035Z,53.38
2023-03-23T18:48:43.444Z,53.32
2023-03-23T18:51:11.657Z,53.47
2023-03-23T18:53:41.298Z,53.61
2023-03-23T18:56:17.792Z,53.90
2023-03-23T18:58:45.824Z,54.02
2023-03-23T19:01:17.103Z,54.16
2023-03-23T19:03:45.646Z,54.18
2023-03-23T19:06:21.283Z,54.19
2023-03-23T19:08:51.390Z,54.31
2023-03-23T19:11:21.314Z,54.38
2023-03-23T19:14:00.366Z,54.41
2023-03-23T19:16:18.630Z,54.43
2023-03-23T19:18:46.648Z,54.46
2023-03-23T19:21:17.586Z,54.46
2023-03-23T19:23:43.863Z,54.40
2023-03-23T19:26:23.125Z,54.39
2023-03-23T19:31:22.662Z,54.39
2023-03-23T19:33:52.536Z,54.25
2023-03-23T19:36:24.843Z,54.18
2023-03-23T19:38:54.258Z,54.14
2023-03-23T19:41:22.017Z,54.10
2023-03-23T19:43:50.245Z,54.09
2023-03-23T19:46:18.202Z,54.08
2023-03-23T19:48:46.663Z,54.24
2023-03-23T19:51:18.857Z,54.28
2023-03-23T19:53:47.221Z,54.37
2023-03-23T19:56:18.288Z,54.53
2023-03-23T19:58:46.615Z,54.72
2023-03-23T20:01:15.547Z,54.91
2023-03-23T20:03:43.727Z,55.04
2023-03-23T20:06:14.791Z,55.09
2023-03-23T20:08:45.470Z,55.16
2023-03-23T20:11:17.161Z,55.23
2023-03-23T20:13:48.026Z,55.13
2023-03-23T20:16:17.712Z,55.07
2023-03-23T20:18:46.850Z,55.07
2023-03-23T20:21:22.507Z,55.13
2023-03-23T20:23:57.135Z,55.14
2023-03-23T20:26:29.412Z,55.14
2023-03-23T20:28:57.665Z,55.18
2023-03-23T20:31:29.977Z,55.20
2023-03-23T20:34:02.694Z,55.19
2023-03-23T20:36:39.677Z,55.31
2023-03-23T20:39:14.756Z,55.39
2023-03-23T20:41:43.117Z,55.25
2023-03-23T20:44:14.930Z,55.21
2023-03-23T20:46:45.759Z,55.24
2023-03-23T20:49:15.284Z,55.19
2023-03-23T20:51:44.381Z,55.07
2023-03-23T20:54:15.195Z,55.16
2023-03-23T20:56:44.500Z,55.34
2023-03-23T20:59:13.381Z,55.55
2023-03-23T21:01:41.550Z,55.62
2023-03-23T21:04:14.738Z,55.74
2023-03-23T21:06:44.691Z,55.83
2023-03-23T21:09:14.095Z,56.03
2023-03-23T21:11:43.203Z,56.06
2023-03-23T21:14:12.032Z,56.11
2023-03-23T21:16:40.822Z,56.29
2023-03-23T21:19:09.252Z,56.30
2023-03-23T21:21:38.726Z,56.31
2023-03-23T21:24:09.782Z,56.38
2023-03-23T21:26:39.136Z,56.36
2023-03-23T21:29:09.262Z,56.38
2023-03-23T21:31:38.094Z,56.40
2023-03-23T21:34:06.080Z,56.44
2023-03-23T21:36:35.042Z,56.47
2023-03-23T21:39:05.531Z,56.52
2023-03-23T21:41:42.570Z,56.58
2023-03-23T21:44:06.754Z,56.60
2023-03-23T21:46:34.463Z,56.68
2023-03-23T21:49:03.122Z,56.76
2023-03-23T21:51:32.244Z,56.76
2023-03-23T21:54:00.020Z,56.98
2023-03-23T21:56:28.080Z,56.88
2023-03-23T21:58:57.022Z,56.94
2023-03-23T22:01:25.127Z,57.00
2023-03-23T22:03:53.296Z,57.05
2023-03-23T22:06:26.113Z,57.11
2023-03-23T22:08:58.097Z,57.16
2023-03-23T22:11:30.624Z,57.27
2023-03-23T22:13:58.949Z,57.41
2023-03-23T22:16:27.463Z,57.49
2023-03-23T22:18:59.564Z,57.70
2023-03-23T22:21:26.716Z,57.73
2023-03-23T22:23:58.202Z,57.83
2023-03-23T22:26:27.912Z,57.89
2023-03-23T22:28:57.699Z,57.93
2023-03-23T22:31:29.613Z,57.88
2023-03-23T22:33:57.527Z,57.87
2023-03-23T22:36:28.035Z,57.80
2023-03-23T22:38:56.158Z,57.76
2023-03-23T22:41:32.028Z,57.72
2023-03-23T22:43:59.921Z,57.69
2023-03-23T22:46:27.860Z,57.73
2023-03-23T22:48:55.914Z,57.65
2023-03-23T22:51:24.109Z,57.66
2023-03-23T22:53:52.266Z,57.62
2023-03-23T22:56:21.127Z,57.58
2023-03-23T22:58:48.941Z,57.56
2023-03-23T23:01:22.208Z,57.53
2023-03-23T23:03:50.560Z,57.55
2023-03-23T23:06:20.177Z,57.73
2023-03-23T23:08:48.805Z,57.48
2023-03-23T23:11:19.365Z,57.55
2023-03-23T23:13:47.966Z,57.61
2023-03-23T23:16:16.800Z,57.66
2023-03-23T23:18:48.208Z,57.70
2023-03-23T23:21:21.942Z,57.71
2023-03-23T23:23:51.244Z,57.76
2023-03-23T23:26:19.215Z,57.80
2023-03-23T23:28:48.044Z,57.90
2023-03-23T23:31:30.811Z,58.05
2023-03-23T23:34:01.138Z,58.24
2023-03-23T23:36:31.700Z,58.32
2023-03-23T23:39:01.941Z,58.41
2023-03-23T23:41:30.204Z,58.42
2023-03-23T23:43:58.954Z,58.51
2023-03-23T23:46:29.913Z,58.59
2023-03-23T23:48:58.623Z,58.61
2023-03-23T23:51:26.975Z,58.64
2023-03-23T23:53:57.878Z,58.67
2023-03-23T23:56:25.795Z,58.85
2023-03-23T23:58:53.630Z,58.85
